sensor_id;sensor_type;location;lat;lon;timestamp;pressure;altitude;pressure_sealevel;temperature;humidity
46408;BME280;32110;45.724;21.276;2023-03-21T02:12:36;100490.59;;;9.88;nan
46408;BME280;32110;45.724;21.276;2023-03-21T03:26:26;100408.84;;;10.08;nan
46408;BME280;32110;45.724;21.276;2023-03-21T04:27:45;100462.50;;;9.45;nan
46408;BME280;32110;45.724;21.276;2023-03-21T05:18:57;100483.38;;;9.40;nan
46408;BME280;32110;45.724;21.276;2023-03-21T05:21:24;100478.97;;;9.34;nan
46408;BME280;32110;45.724;21.276;2023-03-21T05:23:49;100480.56;;;9.35;nan
46408;BME280;32110;45.724;21.276;2023-03-21T06:22:11;100503.75;;;9.70;nan
46408;BME280;32110;45.724;21.276;2023-03-21T06:24:37;100511.41;;;9.71;nan
46408;BME280;32110;45.724;21.276;2023-03-21T06:27:02;100519.44;;;9.76;nan
46408;BME280;32110;45.724;21.276;2023-03-21T06:29:28;100509.16;;;9.75;nan
46408;BME280;32110;45.724;21.276;2023-03-21T06:31:53;100503.91;;;9.75;nan
46408;BME280;32110;45.724;21.276;2023-03-21T06:34:18;100492.56;;;9.74;nan
46408;BME280;32110;45.724;21.276;2023-03-21T06:36:44;100501.88;;;9.77;nan
46408;BME280;32110;45.724;21.276;2023-03-21T06:39:11;100516.72;;;9.90;nan
46408;BME280;32110;45.724;21.276;2023-03-21T06:41:37;100513.44;;;9.94;nan
46408;BME280;32110;45.724;21.276;2023-03-21T06:44:03;100521.31;;;9.94;nan
46408;BME280;32110;45.724;21.276;2023-03-21T06:46:29;100524.09;;;9.99;nan
46408;BME280;32110;45.724;21.276;2023-03-21T06:48:54;100503.69;;;9.95;nan
46408;BME280;32110;45.724;21.276;2023-03-21T06:51:20;100521.16;;;10.08;nan
46408;BME280;32110;45.724;21.276;2023-03-21T06:53:45;100516.63;;;10.15;nan
46408;BME280;32110;45.724;21.276;2023-03-21T06:56:12;100521.03;;;10.21;nan
46408;BME280;32110;45.724;21.276;2023-03-21T06:58:38;100517.16;;;10.23;nan
46408;BME280;32110;45.724;21.276;2023-03-21T07:01:04;100521.34;;;10.31;nan
46408;BME280;32110;45.724;21.276;2023-03-21T07:03:30;100518.22;;;10.41;nan
46408;BME280;32110;45.724;21.276;2023-03-21T07:05:56;100511.13;;;10.41;nan
46408;BME280;32110;45.724;21.276;2023-03-21T07:08:22;100521.50;;;10.55;nan
46408;BME280;32110;45.724;21.276;2023-03-21T07:10:47;100525.06;;;10.60;nan
46408;BME280;32110;45.724;21.276;2023-03-21T07:13:13;100521.88;;;10.70;nan
46408;BME280;32110;45.724;21.276;2023-03-21T07:15:38;100531.09;;;10.79;nan
46408;BME280;32110;45.724;21.276;2023-03-21T07:18:06;100531.47;;;10.83;nan
46408;BME280;32110;45.724;21.276;2023-03-21T07:20:33;100534.81;;;10.90;nan
46408;BME280;32110;45.724;21.276;2023-03-21T07:22:58;100532.91;;;10.97;nan
46408;BME280;32110;45.724;21.276;2023-03-21T07:25:25;100516.38;;;10.90;nan
46408;BME280;32110;45.724;21.276;2023-03-21T07:27:50;100518.94;;;10.97;nan
46408;BME280;32110;45.724;21.276;2023-03-21T07:30:16;100525.34;;;11.01;nan
46408;BME280;32110;45.724;21.276;2023-03-21T07:32:42;100517.94;;;11.10;nan
46408;BME280;32110;45.724;21.276;2023-03-21T07:35:11;100535.13;;;11.12;nan
46408;BME280;32110;45.724;21.276;2023-03-21T07:37:37;100530.66;;;11.13;nan
46408;BME280;32110;45.724;21.276;2023-03-21T07:40:03;100528.25;;;11.11;nan
46408;BME280;32110;45.724;21.276;2023-03-21T07:42:35;100536.41;;;11.21;nan
46408;BME280;32110;45.724;21.276;2023-03-21T07:45:02;100545.34;;;11.32;nan
46408;BME280;32110;45.724;21.276;2023-03-21T07:47:30;100542.28;;;11.35;nan
46408;BME280;32110;45.724;21.276;2023-03-21T07:49:55;100537.44;;;11.32;nan
46408;BME280;32110;45.724;21.276;2023-03-21T07:52:21;100494.88;;;11.05;nan
46408;BME280;32110;45.724;21.276;2023-03-21T07:54:46;100543.00;;;11.42;nan
46408;BME280;32110;45.724;21.276;2023-03-21T07:57:11;100551.03;;;11.47;nan
46408;BME280;32110;45.724;21.276;2023-03-21T07:59:36;100525.78;;;11.40;nan
46408;BME280;32110;45.724;21.276;2023-03-21T08:02:02;100518.22;;;11.43;nan
46408;BME280;32110;45.724;21.276;2023-03-21T08:04:27;100538.75;;;11.53;nan
46408;BME280;32110;45.724;21.276;2023-03-21T08:06:53;100528.66;;;11.50;nan
46408;BME280;32110;45.724;21.276;2023-03-21T08:09:18;100537.28;;;11.57;nan
46408;BME280;32110;45.724;21.276;2023-03-21T08:11:44;100507.56;;;11.38;nan
46408;BME280;32110;45.724;21.276;2023-03-21T08:14:09;100517.19;;;11.56;nan
46408;BME280;32110;45.724;21.276;2023-03-21T08:16:35;100545.22;;;11.69;nan
46408;BME280;32110;45.724;21.276;2023-03-21T08:19:00;100529.47;;;11.62;nan
46408;BME280;32110;45.724;21.276;2023-03-21T08:21:26;100541.31;;;11.71;nan
46408;BME280;32110;45.724;21.276;2023-03-21T08:23:52;100552.53;;;11.79;nan
46408;BME280;32110;45.724;21.276;2023-03-21T08:26:17;100549.22;;;11.83;nan
46408;BME280;32110;45.724;21.276;2023-03-21T08:28:44;100509.75;;;11.65;nan
46408;BME280;32110;45.724;21.276;2023-03-21T08:31:11;100537.75;;;11.89;nan
46408;BME280;32110;45.724;21.276;2023-03-21T08:33:37;100548.78;;;11.98;nan
46408;BME280;32110;45.724;21.276;2023-03-21T08:36:04;100547.75;;;11.99;nan
46408;BME280;32110;45.724;21.276;2023-03-21T08:38:30;100547.88;;;12.04;nan
46408;BME280;32110;45.724;21.276;2023-03-21T08:40:58;100552.00;;;12.12;nan
46408;BME280;32110;45.724;21.276;2023-03-21T08:43:25;100510.59;;;11.89;nan
46408;BME280;32110;45.724;21.276;2023-03-21T08:45:50;100537.28;;;12.16;nan
46408;BME280;32110;45.724;21.276;2023-03-21T08:48:16;100540.84;;;12.22;nan
46408;BME280;32110;45.724;21.276;2023-03-21T08:50:42;100540.16;;;12.26;nan
46408;BME280;32110;45.724;21.276;2023-03-21T08:53:07;100541.97;;;12.38;nan
46408;BME280;32110;45.724;21.276;2023-03-21T08:55:33;100530.59;;;12.37;nan
46408;BME280;32110;45.724;21.276;2023-03-21T08:57:59;100539.88;;;12.51;nan
46408;BME280;32110;45.724;21.276;2023-03-21T09:00:25;100543.75;;;12.61;nan
46408;BME280;32110;45.724;21.276;2023-03-21T09:02:51;100524.19;;;12.62;nan
46408;BME280;32110;45.724;21.276;2023-03-21T09:05:19;100520.63;;;12.68;nan
46408;BME280;32110;45.724;21.276;2023-03-21T09:07:45;100531.47;;;12.83;nan
46408;BME280;32110;45.724;21.276;2023-03-21T10:02:45;100514.31;;;13.60;nan
46408;BME280;32110;45.724;21.276;2023-03-21T11:04:30;100506.38;;;16.57;nan
46408;BME280;32110;45.724;21.276;2023-03-21T11:06:57;100467.50;;;16.41;nan
46408;BME280;32110;45.724;21.276;2023-03-21T11:09:27;100460.63;;;16.50;nan
46408;BME280;32110;45.724;21.276;2023-03-21T11:12:17;100448.66;;;16.57;nan
46408;BME280;32110;45.724;21.276;2023-03-21T11:14:48;100437.19;;;16.47;nan
46408;BME280;32110;45.724;21.276;2023-03-21T11:19:58;100449.72;;;16.62;nan
46408;BME280;32110;45.724;21.276;2023-03-21T11:22:28;100429.78;;;16.54;nan
46408;BME280;32110;45.724;21.276;2023-03-21T11:25:01;100437.28;;;16.83;nan
46408;BME280;32110;45.724;21.276;2023-03-21T11:27:27;100432.50;;;16.95;nan
46408;BME280;32110;45.724;21.276;2023-03-21T11:29:54;100433.28;;;17.11;nan
46408;BME280;32110;45.724;21.276;2023-03-21T11:32:36;100436.22;;;17.25;nan
46408;BME280;32110;45.724;21.276;2023-03-21T11:35:19;100417.03;;;17.28;nan
46408;BME280;32110;45.724;21.276;2023-03-21T11:37:50;100406.94;;;17.30;nan
46408;BME280;32110;45.724;21.276;2023-03-21T11:43:35;100405.53;;;17.58;nan
46408;BME280;32110;45.724;21.276;2023-03-21T11:45:55;100416.38;;;17.72;nan
46408;BME280;32110;45.724;21.276;2023-03-21T11:48:20;100394.25;;;17.76;nan
46408;BME280;32110;45.724;21.276;2023-03-21T11:50:47;100373.06;;;17.56;nan
46408;BME280;32110;45.724;21.276;2023-03-21T12:04:40;100389.13;;;18.00;nan
46408;BME280;32110;45.724;21.276;2023-03-21T12:09:33;100392.25;;;18.18;nan
46408;BME280;32110;45.724;21.276;2023-03-21T12:20:15;100372.53;;;18.14;nan
46408;BME280;32110;45.724;21.276;2023-03-21T12:23:07;100366.16;;;18.10;nan
46408;BME280;32110;45.724;21.276;2023-03-21T12:25:52;100361.28;;;18.22;nan
46408;BME280;32110;45.724;21.276;2023-03-21T12:31:19;100353.19;;;18.37;nan
46408;BME280;32110;45.724;21.276;2023-03-21T12:50:07;100266.44;;;18.79;nan
46408;BME280;32110;45.724;21.276;2023-03-21T12:57:55;100292.06;;;18.80;nan
46408;BME280;32110;45.724;21.276;2023-03-21T13:00:26;100370.47;;;18.84;nan
46408;BME280;32110;45.724;21.276;2023-03-21T13:05:30;100261.63;;;18.81;nan
46408;BME280;32110;45.724;21.276;2023-03-21T13:15:58;100227.91;;;18.90;nan
46408;BME280;32110;45.724;21.276;2023-03-21T13:21:33;100231.38;;;18.91;nan
46408;BME280;32110;45.724;21.276;2023-03-21T13:36:47;100227.72;;;18.82;nan
46408;BME280;32110;45.724;21.276;2023-03-21T13:39:19;100222.69;;;18.80;nan
46408;BME280;32110;45.724;21.276;2023-03-21T13:41:48;100224.44;;;18.90;nan
46408;BME280;32110;45.724;21.276;2023-03-21T13:47:03;100223.50;;;18.76;nan
46408;BME280;32110;45.724;21.276;2023-03-21T13:49:33;100230.22;;;18.73;nan
46408;BME280;32110;45.724;21.276;2023-03-21T13:54:53;100224.63;;;18.69;nan
46408;BME280;32110;45.724;21.276;2023-03-21T14:00:37;100225.94;;;18.77;nan
46408;BME280;32110;45.724;21.276;2023-03-21T14:03:12;100149.63;;;18.76;nan
46408;BME280;32110;45.724;21.276;2023-03-21T14:05:41;100213.25;;;18.88;nan
46408;BME280;32110;45.724;21.276;2023-03-21T14:08:16;100267.66;;;18.63;nan
46408;BME280;32110;45.724;21.276;2023-03-21T14:10:44;100250.00;;;18.38;nan
46408;BME280;32110;45.724;21.276;2023-03-21T14:13:15;100213.09;;;18.50;nan
46408;BME280;32110;45.724;21.276;2023-03-21T14:18:27;100204.81;;;18.52;nan
46408;BME280;32110;45.724;21.276;2023-03-21T14:20:57;100201.84;;;18.53;nan
46408;BME280;32110;45.724;21.276;2023-03-21T14:25:49;100204.53;;;18.53;nan
46408;BME280;32110;45.724;21.276;2023-03-21T14:28:21;100208.72;;;18.35;nan
46408;BME280;32110;45.724;21.276;2023-03-21T14:30:58;100215.25;;;18.19;nan
46408;BME280;32110;45.724;21.276;2023-03-21T14:52:55;100178.84;;;18.09;nan
46408;BME280;32110;45.724;21.276;2023-03-21T16:44:47;100215.28;;;16.34;nan
46408;BME280;32110;45.724;21.276;2023-03-21T17:01:49;100252.78;;;16.07;nan
46408;BME280;32110;45.724;21.276;2023-03-21T17:14:06;100256.72;;;15.99;nan
46408;BME280;32110;45.724;21.276;2023-03-21T17:41:04;100226.88;;;15.51;nan
46408;BME280;32110;45.724;21.276;2023-03-21T18:20:13;100242.41;;;15.12;nan
46408;BME280;32110;45.724;21.276;2023-03-21T18:56:47;100274.47;;;14.30;nan
46408;BME280;32110;45.724;21.276;2023-03-21T19:23:35;100291.75;;;13.83;nan
46408;BME280;32110;45.724;21.276;2023-03-21T20:00:12;100218.13;;;13.09;nan
46408;BME280;32110;45.724;21.276;2023-03-21T21:10:44;100337.78;;;11.39;nan
46408;BME280;32110;45.724;21.276;2023-03-21T23:22:14;100331.53;;;8.99;nan
46408;BME280;32110;45.724;21.276;2023-03-21T23:27:05;100338.25;;;8.94;nan
46408;BME280;32110;45.724;21.276;2023-03-21T23:29:30;100348.91;;;9.00;nan
46408;BME280;32110;45.724;21.276;2023-03-21T23:31:56;100351.31;;;9.01;nan
46408;BME280;32110;45.724;21.276;2023-03-21T23:34:21;100329.16;;;8.90;nan
46408;BME280;32110;45.724;21.276;2023-03-21T23:36:47;100353.31;;;9.06;nan
46408;BME280;32110;45.724;21.276;2023-03-21T23:39:12;100347.06;;;9.00;nan
46408;BME280;32110;45.724;21.276;2023-03-21T23:41:38;100339.47;;;8.92;nan
46408;BME280;32110;45.724;21.276;2023-03-21T23:44:05;100335.91;;;8.86;nan
46408;BME280;32110;45.724;21.276;2023-03-21T23:46:30;100343.34;;;8.89;nan
46408;BME280;32110;45.724;21.276;2023-03-21T23:48:56;100353.84;;;8.89;nan
46408;BME280;32110;45.724;21.276;2023-03-21T23:51:21;100335.94;;;8.80;nan
46408;BME280;32110;45.724;21.276;2023-03-21T23:53:47;100334.91;;;8.81;nan
46408;BME280;32110;45.724;21.276;2023-03-21T23:56:20;100325.28;;;8.75;nan
46408;BME280;32110;45.724;21.276;2023-03-21T23:58:46;100342.09;;;8.92;nan
